createdAt,value
2023-02-09T00:01:58.412Z,78.21
2023-02-09T00:07:01.865Z,78.53
2023-02-09T00:12:22.452Z,78.41
2023-02-09T00:17:24.712Z,78.69
2023-02-09T00:22:29.723Z,78.57
2023-02-09T00:27:35.692Z,78.95
2023-02-09T00:32:38.919Z,78.91
2023-02-09T00:37:42.344Z,79.33
2023-02-09T00:42:44.554Z,79.18
2023-02-09T00:47:46.699Z,79.29
2023-02-09T00:52:49.063Z,79.38
2023-02-09T00:57:51.178Z,79.65
2023-02-09T01:02:53.326Z,79.86
2023-02-09T01:07:55.440Z,79.95
2023-02-09T01:13:03.811Z,80.08
2023-02-09T01:18:07.665Z,80.08
2023-02-09T01:23:10.218Z,80.31
2023-02-09T01:28:12.389Z,80.40
2023-02-09T01:33:14.595Z,80.51
2023-02-09T01:38:16.674Z,80.56
2023-02-09T01:43:18.951Z,80.53
2023-02-09T01:48:27.302Z,80.57
2023-02-09T01:53:29.528Z,80.62
2023-02-09T01:58:32.207Z,80.63
2023-02-09T02:03:34.530Z,80.81
2023-02-09T02:08:58.928Z,81.21
2023-02-09T02:14:01.126Z,80.93
2023-02-09T02:19:50.710Z,81.33
2023-02-09T02:25:23.888Z,81.37
2023-02-09T02:30:48.037Z,81.40
2023-02-09T02:35:55.530Z,81.22
2023-02-09T02:41:10.218Z,81.34
2023-02-09T02:46:31.156Z,81.62
2023-02-09T02:51:39.958Z,81.43
2023-02-09T02:57:18.607Z,81.75
2023-02-09T03:02:24.022Z,81.30
2023-02-09T03:07:26.461Z,81.37
2023-02-09T03:12:52.542Z,81.83
2023-02-09T03:18:11.108Z,81.52
2023-02-09T03:23:19.505Z,81.42
2023-02-09T03:28:31.447Z,81.63
2023-02-09T03:33:34.698Z,81.37
2023-02-09T03:38:36.926Z,81.40
2023-02-09T03:44:03.618Z,81.54
2023-02-09T03:49:05.824Z,81.41
2023-02-09T03:54:08.248Z,81.45
2023-02-09T03:59:10.718Z,81.46
2023-02-09T04:04:12.982Z,81.50
2023-02-09T04:09:15.293Z,81.39
2023-02-09T04:14:17.763Z,81.34
2023-02-09T04:19:19.906Z,81.49
2023-02-09T04:24:22.120Z,81.45
2023-02-09T04:29:24.321Z,81.40
2023-02-09T04:34:26.607Z,81.62
2023-02-09T04:39:28.980Z,81.62
2023-02-09T04:44:40.135Z,81.44
2023-02-09T04:49:42.887Z,81.58
2023-02-09T04:54:45.240Z,81.55
2023-02-09T04:59:47.404Z,81.38
2023-02-09T05:04:49.529Z,81.59
2023-02-09T05:09:51.652Z,81.44
2023-02-09T05:14:53.772Z,81.55
2023-02-09T05:19:55.948Z,81.48
2023-02-09T05:24:58.036Z,81.65
2023-02-09T05:30:00.272Z,81.67
2023-02-09T05:35:02.493Z,81.65
2023-02-09T05:40:06.327Z,81.46
2023-02-09T05:45:18.088Z,81.83
2023-02-09T05:50:20.272Z,81.59
2023-02-09T05:55:22.401Z,81.81
2023-02-09T06:00:25.360Z,81.76
2023-02-09T06:05:27.794Z,81.70
2023-02-09T06:10:29.872Z,81.64
2023-02-09T06:15:32.109Z,81.89
2023-02-09T06:20:34.213Z,81.81
2023-02-09T06:25:39.639Z,81.99
2023-02-09T06:30:41.816Z,81.96
2023-02-09T06:35:44.586Z,81.94
2023-02-09T06:40:47.737Z,81.93
2023-02-09T06:51:26.427Z,82.00
2023-02-09T06:56:28.614Z,82.07
2023-02-09T07:01:30.776Z,81.99
2023-02-09T07:06:33.127Z,81.95
2023-02-09T07:11:35.341Z,81.97
2023-02-09T07:16:37.578Z,82.02
2023-02-09T07:21:39.686Z,81.97
2023-02-09T07:26:41.950Z,82.20
2023-02-09T07:31:44.221Z,82.28
2023-02-09T07:36:47.817Z,82.23
2023-02-09T07:41:50.458Z,82.23
2023-02-09T07:46:52.730Z,82.18
2023-02-09T07:51:54.897Z,82.41
2023-02-09T07:56:57.120Z,82.18
2023-02-09T08:01:59.302Z,82.40
2023-02-09T08:07:01.501Z,82.42
2023-02-09T08:12:05.365Z,82.35
2023-02-09T08:17:28.226Z,82.28
2023-02-09T08:22:32.880Z,82.26
2023-02-09T08:27:36.542Z,82.23
2023-02-09T08:32:38.794Z,82.36
2023-02-09T08:37:40.903Z,82.25
2023-02-09T08:42:43.159Z,82.49
2023-02-09T08:47:45.359Z,82.31
2023-02-09T08:52:47.790Z,82.14
2023-02-09T08:57:49.997Z,82.18
2023-02-09T09:02:52.180Z,82.07
2023-02-09T09:07:54.399Z,82.29
2023-02-09T09:12:56.693Z,82.21
2023-02-09T09:17:58.817Z,82.16
2023-02-09T09:23:02.189Z,82.20
2023-02-09T09:28:04.376Z,82.05
2023-02-09T09:33:06.657Z,82.21
2023-02-09T09:38:08.943Z,82.21
2023-02-09T09:43:38.457Z,82.52
2023-02-09T09:48:44.422Z,82.05
2023-02-09T09:53:50.169Z,82.02
2023-02-09T09:58:52.376Z,81.92
2023-02-09T10:03:59.102Z,82.17
2023-02-09T10:09:10.334Z,82.03
2023-02-09T10:14:12.590Z,81.85
2023-02-09T10:19:20.864Z,82.05
2023-02-09T10:24:30.198Z,81.68
2023-02-09T10:29:32.343Z,81.56
2023-02-09T10:34:48.470Z,81.70
2023-02-09T10:40:06.976Z,81.73
2023-02-09T10:45:17.858Z,81.43
2023-02-09T10:50:20.253Z,81.11
2023-02-09T10:55:30.556Z,81.25
2023-02-09T11:00:37.530Z,80.90
2023-02-09T11:05:39.951Z,80.98
2023-02-09T11:11:29.097Z,81.05
2023-02-09T11:16:53.260Z,80.95
2023-02-09T11:22:10.903Z,80.76
2023-02-09T11:27:29.870Z,80.60
2023-02-09T11:32:45.395Z,80.53
2023-02-09T11:38:01.054Z,80.42
2023-02-09T11:43:25.538Z,80.15
2023-02-09T11:48:37.332Z,80.05
2023-02-09T11:53:48.096Z,80.19
2023-02-09T11:59:11.895Z,79.98
2023-02-09T12:04:18.656Z,79.64
2023-02-09T12:10:00.574Z,79.78
2023-02-09T12:15:08.904Z,79.63
2023-02-09T12:20:37.392Z,79.53
2023-02-09T12:26:01.867Z,79.50
2023-02-09T12:31:04.116Z,79.15
2023-02-09T12:36:12.606Z,79.22
2023-02-09T12:41:51.586Z,79.05
2023-02-09T12:46:56.220Z,79.02
2023-02-09T12:52:02.364Z,78.76
2023-02-09T12:57:17.066Z,78.68
2023-02-09T13:02:48.648Z,78.58
2023-02-09T13:08:07.484Z,78.29
2023-02-09T13:13:12.743Z,78.21
2023-02-09T13:18:14.826Z,78.25
2023-02-09T13:23:21.145Z,78.20
2023-02-09T13:28:23.359Z,77.94
2023-02-09T13:33:34.168Z,77.81
2023-02-09T13:38:40.997Z,77.72
2023-02-09T13:43:46.511Z,77.74
2023-02-09T13:48:48.636Z,77.65
2023-02-09T13:54:02.081Z,77.56
2023-02-09T13:59:07.155Z,77.76
2023-02-09T14:04:29.987Z,77.60
2023-02-09T14:09:41.852Z,77.47
2023-02-09T14:15:32.403Z,77.40
2023-02-09T14:20:35.164Z,77.33
2023-02-09T14:25:37.539Z,77.49
2023-02-09T14:30:50.150Z,77.23
2023-02-09T14:35:59.343Z,77.40
2023-02-09T14:41:27.416Z,77.31
2023-02-09T14:46:50.550Z,77.23
2023-02-09T14:52:05.724Z,77.37
2023-02-09T14:57:11.103Z,77.29
2023-02-09T15:02:20.592Z,77.22
2023-02-09T15:07:30.364Z,77.26
2023-02-09T15:12:33.124Z,77.34
2023-02-09T15:17:35.461Z,77.66
2023-02-09T15:22:37.826Z,77.21
2023-02-09T15:27:51.928Z,77.37
2023-02-09T15:32:54.616Z,77.32
2023-02-09T15:37:59.882Z,77.33
2023-02-09T15:43:24.122Z,77.34
2023-02-09T15:48:27.597Z,77.09
2023-02-09T15:53:31.448Z,77.22
2023-02-09T15:58:39.651Z,77.15
2023-02-09T16:03:42.610Z,76.84
2023-02-09T16:08:50.265Z,76.83
2023-02-09T16:13:54.559Z,76.87
2023-02-09T16:18:56.763Z,76.74
2023-02-09T16:24:01.571Z,76.51
2023-02-09T16:29:04.384Z,76.33
2023-02-09T16:34:07.810Z,76.30
2023-02-09T16:39:18.544Z,76.15
2023-02-09T16:44:23.778Z,76.22
2023-02-09T16:49:33.235Z,76.00
2023-02-09T16:54:41.456Z,76.11
2023-02-09T16:59:44.052Z,75.94
2023-02-09T17:05:33.324Z,75.76
2023-02-09T17:10:36.359Z,75.63
2023-02-09T17:15:47.444Z,75.57
2023-02-09T17:20:58.121Z,75.20
2023-02-09T17:26:00.486Z,75.44
2023-02-09T17:31:04.524Z,75.04
2023-02-09T17:36:27.625Z,75.25
2023-02-09T17:41:39.404Z,75.27
2023-02-09T17:46:42.860Z,75.25
2023-02-09T17:51:48.627Z,75.09
2023-02-09T17:56:51.670Z,75.25
2023-02-09T18:01:56.567Z,75.33
2023-02-09T18:06:58.774Z,75.08
2023-02-09T18:12:20.456Z,75.13
2023-02-09T18:17:22.659Z,75.24
2023-02-09T18:22:27.857Z,75.49
2023-02-09T18:27:30.065Z,75.21
2023-02-09T18:32:32.210Z,75.47
2023-02-09T18:37:40.522Z,75.25
2023-02-09T18:42:43.479Z,75.32
2023-02-09T18:47:46.808Z,75.12
2023-02-09T18:52:52.562Z,74.92
2023-02-09T18:57:58.026Z,75.02
2023-02-09T19:03:00.375Z,74.99
2023-02-09T19:08:02.766Z,75.06
2023-02-09T19:13:05.580Z,74.79
2023-02-09T19:18:07.792Z,74.54
2023-02-09T19:23:10.031Z,74.35
2023-02-09T19:28:12.695Z,73.78
2023-02-09T19:33:15.155Z,73.66
2023-02-09T19:38:17.609Z,73.47
2023-02-09T19:43:21.120Z,73.40
2023-02-09T19:48:24.016Z,73.55
2023-02-09T19:53:26.803Z,73.47
2023-02-09T19:58:29.220Z,73.57
2023-02-09T20:03:31.746Z,73.61
2023-02-09T20:08:34.014Z,73.25
2023-02-09T20:13:36.805Z,73.55
2023-02-09T20:18:40.436Z,73.38
2023-02-09T20:23:44.998Z,73.53
2023-02-09T20:28:51.158Z,73.26
2023-02-09T20:33:53.843Z,73.40
2023-02-09T20:38:56.152Z,73.35
2023-02-09T20:44:16.783Z,72.97
2023-02-09T20:49:19.329Z,73.29
2023-02-09T20:54:21.743Z,73.32
2023-02-09T20:59:24.791Z,73.05
2023-02-09T21:04:30.448Z,72.76
2023-02-09T21:09:32.673Z,72.99
2023-02-09T21:14:43.120Z,72.78
2023-02-09T21:19:46.771Z,72.68
2023-02-09T21:24:48.967Z,72.95
2023-02-09T21:29:51.250Z,72.66
2023-02-09T21:34:53.503Z,72.83
2023-02-09T21:39:56.194Z,72.80
2023-02-09T21:45:00.400Z,72.93
2023-02-09T21:50:04.734Z,72.89
2023-02-09T21:55:08.544Z,72.60
2023-02-09T22:00:14.963Z,72.50
2023-02-09T22:05:18.578Z,72.67
2023-02-09T22:10:21.258Z,72.72
2023-02-09T22:15:24.093Z,72.70
2023-02-09T22:20:36.067Z,72.62
2023-02-09T22:25:38.546Z,72.70
2023-02-09T22:30:40.828Z,72.62
2023-02-09T22:35:43.082Z,72.87
2023-02-09T22:40:45.533Z,72.77
2023-02-09T22:45:55.209Z,72.74
2023-02-09T22:50:57.381Z,72.93
2023-02-09T22:56:03.607Z,72.92
2023-02-09T23:01:06.704Z,73.07
2023-02-09T23:06:12.636Z,73.11
2023-02-09T23:11:17.466Z,72.94
2023-02-09T23:16:22.694Z,72.91
2023-02-09T23:21:28.674Z,72.88
2023-02-09T23:26:30.886Z,72.89
2023-02-09T23:31:33.436Z,73.03
2023-02-09T23:36:35.906Z,72.91
2023-02-09T23:41:38.106Z,72.87
2023-02-09T23:46:40.314Z,72.53
2023-02-09T23:51:44.465Z,72.17
2023-02-09T23:56:46.775Z,72.08
